Nearby METAR Reports

 

KNUQ - Moffett Nas/Mtn, California, USA
Distance from station: N 9mi, 14km
Updated: Tue, 11-Dec-2018 9:56pm PST
Clear
Clear
 Wind from calm
Wind: Calm
Temperature: 46°F , 8°C
Dew Point: 39°F , 4°C
Humidity: 76%
Barometer: 30.22 inHg , 1023.4 hPa
Clouds: Clear
Visibility: 10 miles , 16 km
2018/12/12 05:56 KNUQ 120556Z 00000KT 10SM CLR 08/04 A3022 RMK AO2 SLP237 T00830044 10144 20083 51010
KSJC - San Jose, California, USA
Distance from station: NE 9mi, 14km
Updated: Tue, 11-Dec-2018 10:19pm PST
Mostly Cloudy
Mostly Cloudy
 Wind from SSE
Wind: SSE 3 mph , 6 km/h
Temperature: 48°F , 9°C
Dew Point: 39°F , 4°C
Humidity: 71%
Barometer: 30.22 inHg , 1023.4 hPa
Clouds: Mostly Cloudy
Visibility: 10 miles , 16 km
Cloud details: Few Clouds 1200 ft
Mostly Cloudy 1800 ft
2018/12/12 06:19 KSJC 120619Z 15003KT 10SM FEW012 BKN018 09/04 A3022 RMK AO2 T00940044
 
KRHV - San Jose/Reid, California, USA
Distance from station: ENE 12mi, 19km
Updated: Tue, 11-Dec-2018 9:47pm PST
Few Clouds
Few Clouds
 Wind from calm
Wind: Calm
Temperature: 48°F , 9°C
Dew Point: 43°F , 6°C
Humidity: 82%
Barometer: 30.20 inHg , 1022.7 hPa
Clouds: Few Clouds
Visibility: 10 miles , 16 km
Cloud details: Few Clouds 2000 ft
2018/12/12 05:47 KRHV 120547Z 00000KT 10SM FEW020 09/06 A3020
KPAO - Palo Alto, California, USA
Distance from station: NNW 14mi, 23km
Updated: Tue, 11-Dec-2018 8:47pm PST
NOT Current
Few Clouds
Few Clouds
 Wind from calm
Wind: Calm
Temperature: 48°F , 9°C
Barometer: 30.22 inHg , 1023.4 hPa
Clouds: Few Clouds
Visibility: 10 miles , 16 km
Cloud details: Partly Cloudy 1000 ft
Few Clouds 20000 ft
2018/12/12 04:47 KPAO 120447Z 00000KT 10SM SCT010 FEW200 09/ A3022 RMK LAST
 
KSQL - San Carlos Airpo, California, USA
Distance from station: NW 21mi, 34km
Updated: Tue, 11-Dec-2018 10:20pm PST
Overcast
Overcast
 Wind from SSW
Wind: SSW 3 mph , 6 km/h
Temperature: 50°F , 10°C
Dew Point: 46°F , 8°C
Humidity: 88%
Barometer: 30.21 inHg , 1023 hPa
Clouds: Overcast
Visibility: 10 miles , 16 km
Cloud details: Overcast 1300 ft
2018/12/12 06:20 KSQL 120620Z AUTO 20003KT 10SM OVC013 10/08 A3021 RMK AO2
KWVI - Watsonville, California, USA
Distance from station: SSE 27mi, 44km
Updated: Tue, 11-Dec-2018 9:53pm PST
Clear
Clear
 Wind from NNW
Wind: NNW 3 mph , 6 km/h
Temperature: 45°F , 7°C
Dew Point: 39°F , 4°C
Humidity: 81%
Barometer: 30.22 inHg , 1023.4 hPa
Clouds: Clear
Visibility: 10 miles , 16 km
2018/12/12 05:53 KWVI 120553Z AUTO 34003KT 10SM CLR 07/04 A3022 RMK AO2 SLP233 T00720044 10139 20072 51011
 
KHWD - Hayward, California, USA
Distance from station: N 28mi, 44km
Updated: Tue, 11-Dec-2018 10:02pm PST
Partly Cloudy
Partly Cloudy
 Wind from ENE
Wind: ENE 3 mph , 6 km/h
Temperature: 48°F , 9°C
Dew Point: 43°F , 6°C
Humidity: 82%
Barometer: 30.21 inHg , 1023 hPa
Clouds: Partly Cloudy
Visibility: 10 miles , 16 km
Cloud details: Partly Cloudy 800 ft
2018/12/12 06:02 KHWD 120602Z AUTO 06003KT 10SM SCT008 09/06 A3021 RMK AO2 T00940061
KSFO - San Francisco, California, USA
Distance from station: NW 30mi, 49km
Updated: Tue, 11-Dec-2018 9:56pm PST
Mostly Cloudy
Mostly Cloudy
 Wind from WNW
Wind: WNW 13 mph , 20 km/h
Temperature: 55°F , 13°C
Dew Point: 52°F , 11°C
Humidity: 88%
Barometer: 30.20 inHg , 1022.7 hPa
Clouds: Mostly Cloudy
Visibility: 10 miles , 16 km
Cloud details: Few Clouds 800 ft
Mostly Cloudy 1000 ft
2018/12/12 05:56 KSFO 120556Z 30011KT 10SM FEW008 BKN010 13/11 A3020 RMK AO2 SLP228 T01330111 10133 20128 53008
 
KHAF - Half Moon Bay, California, USA
Distance from station: WNW 31mi, 50km
Updated: Tue, 11-Dec-2018 10:20pm PST
Mist, Overcast
Mist, Overcast
 Wind from NNW
Wind: NNW 8 mph , 13 km/h
Temperature: 55°F , 13°C
Dew Point: 54°F , 12°C
Humidity: 94%
Barometer: 30.21 inHg , 1023 hPa
Summary: Mist
Clouds: Overcast
Visibility: 5 miles , 8 km
Cloud details: Overcast 600 ft
2018/12/12 06:20 KHAF 120620Z AUTO 34007KT 5SM BR OVC006 13/12 A3021 RMK AO2
KOAK - Oakland, California, USA
Distance from station: NNW 31mi, 50km
Updated: Tue, 11-Dec-2018 9:53pm PST
Partly Cloudy
Partly Cloudy
 Wind from ENE
Wind: ENE 3 mph , 6 km/h
Temperature: 48°F , 9°C
Dew Point: 45°F , 7°C
Humidity: 87%
Barometer: 30.22 inHg , 1023.4 hPa
Clouds: Partly Cloudy
Visibility: 10 miles , 16 km
Cloud details: Few Clouds 1000 ft
Partly Cloudy 20000 ft
2018/12/12 05:53 KOAK 120553Z 06003KT 10SM FEW010 SCT200 09/07 A3022 RMK AO2 SLP232 T00890067 10128 20089 52006 $
 
KLVK - Livermore, California, USA
Distance from station: NNE 31mi, 51km
Updated: Tue, 11-Dec-2018 9:53pm PST
Clear
Clear
 Wind from calm
Wind: Calm
Temperature: 45°F , 7°C
Dew Point: 37°F , 3°C
Humidity: 76%
Barometer: 30.20 inHg , 1022.7 hPa
Clouds: Clear
Visibility: 9 miles , 14 km
2018/12/12 05:53 KLVK 120553Z AUTO 00000KT 9SM CLR 07/03 A3020 RMK AO2 SLP228 T00670033 10144 20061 51009
KCVH - Hollister Muni, California, USA
Distance from station: SE 42mi, 68km
Updated: Tue, 11-Dec-2018 10:15pm PST
Clear
Clear
 Wind from calm
Wind: Calm
Temperature: 45°F , 7°C
Dew Point: 41°F , 5°C
Humidity: 87%
Barometer: 30.23 inHg , 1023.7 hPa
Clouds: Clear
Visibility: 10 miles , 16 km
2018/12/12 06:15 KCVH 120615Z AUTO 00000KT 10SM CLR 07/05 A3023 RMK A01
 
KSNS - Salinas, California, USA
Distance from station: SSE 48mi, 77km
Updated: Tue, 11-Dec-2018 9:53pm PST
Clear
Clear
 Wind from calm
Wind: Calm
Temperature: 46°F , 8°C
Dew Point: 43°F , 6°C
Humidity: 87%
Barometer: 30.21 inHg , 1023 hPa
Clouds: Clear
Visibility: 10 miles , 16 km
2018/12/12 05:53 KSNS 120553Z AUTO 00000KT 10SM CLR 08/06 A3021 RMK AO2 SLP238 T00830056 10156 20083 50008
KMRY - Monterey, California, USA
Distance from station: SSE 49mi, 78km
Updated: Tue, 11-Dec-2018 9:54pm PST
Clear
Clear
 Wind from calm
Wind: Calm
Temperature: 45°F , 7°C
Dew Point: 41°F , 5°C
Humidity: 87%
Barometer: 30.22 inHg , 1023.4 hPa
Clouds: Clear
Visibility: 10 miles , 16 km
2018/12/12 05:54 KMRY 120554Z AUTO 00000KT 10SM CLR 07/05 A3022 RMK AO2 SLP248 T00720050 10128 20072 51013
 
KCCR - Concord, California, USA
Distance from station: N 50mi, 81km
Updated: Tue, 11-Dec-2018 9:53pm PST
Clear
Clear
 Wind from calm
Wind: Calm
Temperature: 48°F , 9°C
Dew Point: 41°F , 5°C
Humidity: 76%
Barometer: 30.21 inHg , 1023 hPa
Clouds: Clear
Visibility: 10 miles , 16 km
2018/12/12 05:53 KCCR 120553Z 00000KT 10SM CLR 09/05 A3021 RMK AO2 SLP214 T00940050 10167 20089 51008

Metar display script from Saratoga-Weather.org